Terminal Aerodrome Forecast
Issued by NWS Wakefield, VA

Home | Current Version | Previous Version | Text Only | Print | Product List | Glossary On
Versions: 1 2 3 4 5 6 7 8 9 10 11 12 13 14 15 16 17 18 19 20 21 22 23 24 25 26 27 28 29 30
000
FTUS41 KAKQ 250536
TAFSBY
TAF
KSBY 250536Z 2506/2606 08010KT P6SM -RA OVC005
     FM251200 15009KT P6SM VCSH BKN005 OVC010
     FM251500 20012KT P6SM BKN020
     FM251700 20014G21KT P6SM -SHRA BKN050
     FM252100 20013G20KT P6SM -SHRA BKN100
     FM260100 22009KT P6SM BKN100=

USA.gov is the U.S. government's official web portal to all federal, state and local government web resources and services.